Weather observations for the past three days for
Funafuti International Airport
Metric (Imperial)
Date Time (+12) Wind (kph) Vis. (km) Weather Sky Cond. Temperature (ºC) Relative Humidity Wind Chill (°C) Heat Index (°C) Pressure Precipitation (cm)
Air Dwpt 6 hour altimeter (cm) sea level (mb) 1 hr 3 hr 6 hr
Max. Min.
05 17:00 E 7 0.00 Mostly Cloudy FEW018TCU BKN300 30 26 79% 37 0 0.0
05 16:00 Vrbl 4 0.00 Mostly Cloudy FEW018TCU BKN300 30 26 79% 37 0 0.0
05 15:00 Vrbl 4 0.00 Mostly Cloudy SCT018TCU BKN300 31 25 70% 38 0 0.0
05 14:00 Vrbl 4 0.00 Mostly Cloudy FEW018TCU BKN300 31 27 79% 41 0 0.0
05 13:00 Vrbl 4 0.00 Mostly Cloudy FEW018TCU BKN300 31 27 79% 41 0 0.0
05 12:00 Vrbl 4 0.00 Mostly Cloudy FEW018TCU BKN300 31 25 70% 38 0 0.0
05 11:00 NE 7 0.00 Mostly Cloudy FEW018TCU BKN300 31 27 79% 41 0 0.0
05 10:00 Vrbl 4 0.00 Mostly Cloudy SCT018TCU BKN300 31 27 79% 41 0 0.0
05 09:00 NE 9 0.00 Mostly Cloudy FEW018TCU BKN110 31 26 75% 39 0 0.0
05 08:00 Vrbl 6 0.00 Mostly Cloudy FEW018TCU BKN110 30 27 84% 39 0 0.0
05 07:00 NE 6 0.00 Mostly Cloudy SCT018TCU BKN110 29 26 84% 36 0 0.0
05 06:00 NE 7 0.00 Mostly Cloudy FEW018TCU BKN110 29 26 84% 36 0 0.0
05 05:00 NE 7 0.00 Mostly Cloudy FEW018TCU BKN110 28 26 89% 34 0 0.0
05 04:00 E 11 0.00 Mostly Cloudy FEW018TCU BKN110 28 26 89% 34 0 0.0
05 03:00 SE 13 0.00 Mostly Cloudy FEW018TCU BKN110 28 26 89% 34 0 0.0
05 02:00 SE 20 0.00 Mostly Cloudy FEW018TCU BKN110 28 27 94% 35 0 0.0
05 01:00 SE 17 0.00 Mostly Cloudy FEW018TCU BKN300 28 27 94% 35 0 0.0
05 00:00 SE 15 0.00 Mostly Cloudy FEW018TCU BKN110 29 26 84% 36 0 0.0
04 23:00 SE 9 0.00 Mostly Cloudy FEW018TCU BKN110 29 26 84% 36 0 0.0
04 22:00 SE 7 0.00 Mostly Cloudy FEW018TCU BKN110 29 26 84% 36 0 0.0
04 21:00 Calm 0.00 Mostly Cloudy FEW018TCU BKN110 29 25 79% 35 0 0.0
04 20:00 SW 2 0.00 Blowing FEW018TCU 29 25 79% 35 0 0.0
04 19:00 W 2 0.00 Mostly Cloudy FEW018TCU BKN110 29 25 79% 35 0 0.0
04 18:00 N 9 0.00 Mostly Cloudy FEW018TCU BKN110 29 25 79% 35 0 0.0
04 17:00 N 7 0.00 Mostly Cloudy FEW018TCU BKN110 31 26 75% 39 0 0.0
04 16:00 N 7 0.00 Mostly Cloudy FEW020 BKN110 31 25 70% 38 0 0.0
04 15:00 N 7 0.00 Mostly Cloudy FEW020 BKN110 30 24 70% 35 0 0.0
04 14:00 N 13 0.00 Mostly Cloudy FEW018TCU BKN110 32 26 71% 41 0 0.0
04 13:00 N 13 0.00 Mostly Cloudy FEW018TCU BKN110 31 26 75% 39 0 0.0
04 12:00 N 11 0.00 Mostly Cloudy FEW018TCU BKN110 32 25 67% 39 0 0.0
04 11:00 N 9 0.00 Mostly Cloudy FEW018TCU BKN110 31 26 75% 39 0 0.0
04 10:00 N 9 0.00 Mostly Cloudy FEW018TCU BKN110 31 26 75% 39 0 0.0
04 09:00 NE 9 0.00 NULL NULL 31 26 75% 39 0 0.0
04 08:00 NE 7 0.00 NULL NULL 29 25 79% 35 0 0.0
04 07:00 NE 7 0.00 NULL NULL 28 26 89% 34 0 0.0
04 06:00 NE 6 0.00 NULL NULL 28 26 89% 34 0 0.0
04 05:00 N 6 0.00 NULL NULL 29 26 84% 36 0 0.0
04 04:00 N 11 0.00 NULL NULL 29 26 84% 36 0 0.0
04 03:00 N 9 0.00 NULL NULL 29 26 84% 36 0 0.0
04 02:00 N 9 0.00 NULL NULL 29 26 84% 36 0 0.0
04 01:00 N 9 0.00 NULL NULL 29 26 84% 36 0 0.0
04 00:00 N 9 0.00 Mostly Cloudy FEW018TCU BKN300 29 26 84% 36 0 0.0
03 23:00 N 9 0.00 Mostly Cloudy FEW016CB FEW018TCU BKN110 29 26 84% 36 0 0.0
03 22:00 NE 6 0.00 Mostly Cloudy FEW018TCU BKN110 0 0 0% 0 0.0
03 21:00 NE 6 0.00 Mostly Cloudy FEW016CB FEW018TCU BKN110 28 26 89% 34 0 0.0
03 20:00 Vrbl 4 0.00 Mostly Cloudy FEW018TCU BKN110 29 27 89% 37 0 0.0
03 19:00 NE 6 0.00 Mostly Cloudy FEW018TCU BKN110 29 26 84% 36 0 0.0
03 18:00 NE 7 0.00 Mostly Cloudy FEW018TCU BKN110 28 21 66% 30 0 0.0
03 17:00 Vrbl 4 0.00 Mostly Cloudy FEW016CB FEW018TCU BKN110 28 25 84% 33 0 0.0
03 16:00 SE 22 0.00 Light Showers Rain FEW015CB OVC110 29 27 89% 37 0 0.0
03 15:00 SE 7 0.00 Overcast FEW018TCU OVC110 30 26 79% 37 0 0.0
03 13:00 E 9 0.00 Partly Cloudy SCT018TCU 30 26 79% 37 0 0.0
03 12:00 E 9 0.00 Showers in Vicinity FEW016CB FEW018TCU BKN110 31 25 70% 38 0 0.0
03 11:00 Calm 0.00 A Few Clouds FEW018TCU 31 27 79% 41 0 0.0
03 10:00 NE 13 0.00 Partly Cloudy SCT018TCU 31 27 79% 41 0 0.0
03 09:00 NE 11 0.00 Mostly Cloudy FEW018TCU BKN300 31 26 75% 39 0 0.0
03 07:00 NE 6 0.00 Mostly Cloudy FEW018TCU BKN300 29 27 89% 37 0 0.0
03 06:00 NE 6 0.00 Mostly Cloudy FEW018TCU BKN110 28 26 89% 34 0 0.0
03 05:00 NE 11 0.00 Mostly Cloudy FEW018TCU BKN110 28 27 94% 35 0 0.0
03 03:00 N 15 0.00 Mostly Cloudy FEW018TCU BKN110 29 26 84% 36 0 0.0
03 02:00 Vrbl 4 0.00 Light Showers Rain FEW015CB OVC110 27 26 94% 31 0 0.0
03 01:00 NE 11 0.00 NULL NULL 29 27 89% 37 0 0.0
03 00:00 NE 11 0.00 NULL NULL 29 27 89% 37 0 0.0
02 23:00 NE 11 0.00 NULL NULL 29 26 84% 36 0 0.0
02 22:00 NE 11 0.00 NULL NULL 29 26 84% 36 0 0.0
02 21:00 NE 9 0.00 NULL NULL 29 27 89% 37 0 0.0
02 20:00 NE 11 0.00 NULL NULL 29 27 89% 37 0 0.0
02 19:00 NE 6 0.00 Fog/Mist NULL 27 26 94% 31 0 0.0
Date Time (+12) Wind (kph) Vis. (km) Weather Sky Cond. Air Dwpt Max. Min. Relative Humidity Wind Chill (°C) Heat Index (°C) altimeter (cm) sea level (mb) 1 hr 3 hr 6 hr
6 hour
Temperature (ºC) Pressure Precipitation (cm)